createdAt,value
2023-04-15T00:00:57.568Z,7.23
2023-04-15T00:03:24.912Z,7.50
2023-04-15T00:05:52.046Z,7.31
2023-04-15T00:08:18.611Z,7.00
2023-04-15T00:10:46.704Z,7.32
2023-04-15T00:13:13.550Z,7.44
2023-04-15T00:15:40.095Z,7.26
2023-04-15T00:18:08.335Z,6.74
2023-04-15T00:20:35.418Z,7.77
2023-04-15T00:23:04.129Z,7.75
2023-04-15T00:25:30.850Z,7.75
2023-04-15T00:27:57.363Z,7.60
2023-04-15T00:30:24.049Z,7.73
2023-04-15T00:32:50.853Z,7.44
2023-04-15T00:35:17.470Z,7.23
2023-04-15T00:37:46.015Z,7.49
2023-04-15T00:40:13.810Z,7.37
2023-04-15T00:42:40.734Z,7.62
2023-04-15T00:45:08.823Z,7.53
2023-04-15T00:47:37.293Z,7.57
2023-04-15T00:50:03.981Z,7.33
2023-04-15T00:52:30.743Z,7.29
2023-04-15T00:54:57.762Z,7.45
2023-04-15T00:57:24.311Z,7.35
2023-04-15T00:59:52.613Z,7.24
2023-04-15T01:02:19.727Z,7.62
2023-04-15T01:04:47.079Z,7.52
2023-04-15T01:07:13.630Z,7.74
2023-04-15T01:09:40.490Z,7.53
2023-04-15T01:12:08.534Z,7.44
2023-04-15T01:14:35.204Z,7.42
2023-04-15T01:17:02.247Z,7.79
2023-04-15T01:19:28.847Z,7.25
2023-04-15T01:21:55.561Z,7.63
2023-04-15T01:24:23.251Z,7.54
2023-04-15T01:26:50.443Z,7.65
2023-04-15T01:29:16.945Z,7.71
2023-04-15T01:31:51.900Z,7.10
2023-04-15T01:34:18.712Z,7.52
2023-04-15T01:36:45.318Z,7.62
2023-04-15T01:39:11.880Z,7.20
2023-04-15T01:41:38.490Z,7.30
2023-04-15T01:44:05.067Z,6.91
2023-04-15T01:46:31.625Z,7.34
2023-04-15T01:48:58.512Z,7.10
2023-04-15T01:51:25.183Z,6.93
2023-04-15T01:53:52.319Z,6.92
2023-04-15T01:56:18.934Z,7.28
2023-04-15T01:58:45.574Z,7.41
2023-04-15T02:01:13.164Z,7.10
2023-04-15T02:03:39.900Z,7.16
2023-04-15T02:06:06.436Z,6.96
2023-04-15T02:08:32.980Z,7.14
2023-04-15T02:11:01.218Z,7.61
2023-04-15T02:13:27.668Z,7.64
2023-04-15T02:15:55.689Z,7.60
2023-04-15T02:18:22.264Z,7.89
2023-04-15T02:20:48.918Z,7.74
2023-04-15T02:23:15.728Z,7.73
2023-04-15T02:25:42.278Z,8.05
2023-04-15T02:28:20.168Z,8.30
2023-04-15T02:30:48.034Z,7.43
2023-04-15T02:33:14.558Z,6.87
2023-04-15T02:35:44.196Z,7.72
2023-04-15T02:38:11.490Z,7.75
2023-04-15T02:40:37.961Z,7.31
2023-04-15T02:43:05.419Z,7.46
2023-04-15T02:45:31.923Z,7.83
2023-04-15T02:47:58.724Z,7.90
2023-04-15T02:50:25.738Z,8.45
2023-04-15T02:52:52.312Z,7.67
2023-04-15T02:55:18.874Z,8.11
2023-04-15T02:57:45.546Z,7.56
2023-04-15T03:00:12.444Z,7.80
2023-04-15T03:02:39.544Z,7.72
2023-04-15T03:05:07.001Z,8.15
2023-04-15T03:07:33.522Z,7.89
2023-04-15T03:10:00.209Z,7.55
2023-04-15T03:12:26.826Z,8.16
2023-04-15T03:14:53.264Z,7.97
2023-04-15T03:17:19.913Z,7.99
2023-04-15T03:19:46.446Z,8.33
2023-04-15T03:22:12.934Z,7.75
2023-04-15T03:24:39.679Z,8.31
2023-04-15T03:27:07.970Z,7.99
2023-04-15T03:29:34.516Z,8.27
2023-04-15T03:32:01.239Z,8.05
2023-04-15T03:34:27.772Z,8.16
2023-04-15T03:36:54.465Z,8.18
2023-04-15T03:39:21.551Z,7.99
2023-04-15T03:41:48.199Z,8.17
2023-04-15T03:44:14.715Z,8.52
2023-04-15T03:46:41.740Z,7.73
2023-04-15T03:49:08.412Z,8.66
2023-04-15T03:51:35.314Z,8.56
2023-04-15T03:54:02.120Z,8.34
2023-04-15T03:56:28.653Z,8.61
2023-04-15T03:58:55.173Z,8.49
2023-04-15T04:01:22.025Z,8.64
2023-04-15T04:03:48.747Z,8.43
2023-04-15T04:06:15.748Z,8.71
2023-04-15T04:08:42.328Z,8.73
2023-04-15T04:11:08.854Z,9.23
2023-04-15T04:13:35.397Z,8.91
2023-04-15T04:16:02.124Z,8.90
2023-04-15T04:18:28.765Z,9.17
2023-04-15T04:20:55.455Z,8.77
2023-04-15T04:23:21.947Z,8.93
2023-04-15T04:25:48.596Z,9.26
2023-04-15T04:28:15.248Z,9.47
2023-04-15T04:30:41.856Z,9.25
2023-04-15T04:33:08.402Z,9.19
2023-04-15T04:35:37.606Z,9.48
2023-04-15T04:38:04.278Z,9.22
2023-04-15T04:40:31.272Z,9.42
2023-04-15T04:42:57.811Z,9.33
2023-04-15T04:45:24.260Z,9.66
2023-04-15T04:47:50.821Z,9.40
2023-04-15T04:50:17.392Z,9.26
2023-04-15T04:52:43.849Z,9.46
2023-04-15T04:55:10.425Z,9.68
2023-04-15T04:57:37.725Z,9.63
2023-04-15T05:00:05.021Z,8.81
2023-04-15T05:02:32.629Z,8.91
2023-04-15T05:04:59.266Z,9.32
2023-04-15T05:07:25.800Z,8.39
2023-04-15T05:09:52.276Z,8.02
2023-04-15T05:12:18.880Z,8.26
2023-04-15T05:14:46.808Z,8.39
2023-04-15T05:17:14.234Z,8.21
2023-04-15T05:19:40.834Z,8.40
2023-04-15T05:22:07.877Z,8.31
2023-04-15T05:24:34.457Z,8.29
2023-04-15T05:27:02.111Z,8.55
2023-04-15T05:29:28.618Z,9.22
2023-04-15T05:31:55.560Z,9.37
2023-04-15T05:34:22.450Z,9.00
2023-04-15T05:36:49.182Z,9.49
2023-04-15T05:39:16.200Z,9.75
2023-04-15T05:41:43.027Z,9.94
2023-04-15T05:44:09.494Z,10.37
2023-04-15T05:46:36.479Z,10.64
2023-04-15T05:49:03.424Z,9.89
2023-04-15T05:51:30.253Z,10.11
2023-04-15T05:53:56.939Z,9.67
2023-04-15T05:56:23.430Z,10.49
2023-04-15T05:58:51.318Z,10.20
2023-04-15T06:01:19.233Z,9.96
2023-04-15T06:03:45.995Z,10.98
2023-04-15T06:06:13.506Z,10.74
2023-04-15T06:08:40.054Z,11.48
2023-04-15T06:11:06.735Z,11.25
2023-04-15T06:13:33.989Z,10.06
2023-04-15T06:16:00.554Z,10.24
2023-04-15T06:18:27.100Z,11.00
2023-04-15T06:20:53.639Z,12.40
2023-04-15T06:23:20.197Z,12.56
2023-04-15T06:25:46.712Z,11.97
2023-04-15T06:28:13.134Z,12.33
2023-04-15T06:30:40.095Z,12.18
2023-04-15T06:33:07.481Z,12.87
2023-04-15T06:35:34.007Z,12.13
2023-04-15T06:38:00.915Z,10.26
2023-04-15T06:40:27.873Z,11.16
2023-04-15T06:42:55.131Z,12.28
2023-04-15T06:45:21.661Z,12.95
2023-04-15T06:47:48.207Z,19.62
2023-04-15T06:50:14.822Z,15.39
2023-04-15T06:52:41.644Z,14.14
2023-04-15T06:55:08.735Z,22.61
2023-04-15T06:57:35.353Z,30.53
2023-04-15T07:00:02.734Z,16.07
2023-04-15T07:02:29.401Z,12.40
2023-04-15T07:04:56.932Z,13.70
2023-04-15T07:07:23.522Z,12.45
2023-04-15T07:09:50.261Z,12.20
2023-04-15T07:12:17.042Z,12.39
2023-04-15T07:14:43.568Z,11.75
2023-04-15T07:17:10.153Z,11.43
2023-04-15T07:19:36.629Z,12.47
2023-04-15T07:22:03.872Z,12.07
2023-04-15T07:24:31.139Z,10.34
2023-04-15T07:26:59.525Z,8.99
2023-04-15T07:29:27.301Z,9.18
2023-04-15T07:31:53.807Z,9.79
2023-04-15T07:34:20.894Z,10.74
2023-04-15T07:36:50.652Z,11.12
2023-04-15T07:39:17.689Z,9.26
2023-04-15T07:41:44.261Z,8.39
2023-04-15T07:44:11.289Z,8.31
2023-04-15T07:46:38.548Z,8.53
2023-04-15T07:49:05.248Z,8.37
2023-04-15T07:51:32.286Z,15.23
2023-04-15T07:53:59.201Z,19.40
2023-04-15T07:56:26.530Z,8.20
2023-04-15T07:58:53.270Z,7.07
2023-04-15T08:01:19.821Z,6.43
2023-04-15T08:03:46.612Z,6.06
2023-04-15T08:06:13.256Z,5.93
2023-04-15T08:08:39.955Z,5.83
2023-04-15T08:11:06.612Z,5.87
2023-04-15T08:13:33.212Z,5.38
2023-04-15T08:16:15.014Z,5.78
2023-04-15T08:18:42.097Z,5.60
2023-04-15T08:21:09.376Z,6.64
2023-04-15T08:23:36.030Z,6.36
2023-04-15T08:26:02.643Z,5.69
2023-04-15T08:28:29.382Z,6.15
2023-04-15T08:30:56.165Z,6.86
2023-04-15T08:33:22.687Z,6.16
2023-04-15T08:35:52.841Z,6.29
2023-04-15T08:38:19.422Z,6.84
2023-04-15T08:40:46.966Z,7.08
2023-04-15T08:43:19.084Z,7.12
2023-04-15T08:45:46.730Z,6.40
2023-04-15T08:48:16.619Z,6.75
2023-04-15T08:50:43.488Z,6.05
2023-04-15T08:53:10.829Z,5.34
2023-04-15T08:55:42.349Z,5.91
2023-04-15T08:58:10.653Z,5.12
2023-04-15T09:00:38.387Z,5.52
2023-04-15T09:03:05.635Z,5.27
2023-04-15T09:05:33.593Z,5.59
2023-04-15T09:08:00.910Z,5.65
2023-04-15T09:10:27.676Z,5.55
2023-04-15T09:12:54.795Z,5.47
2023-04-15T09:15:21.352Z,5.24
2023-04-15T09:17:48.670Z,5.84
2023-04-15T09:20:16.341Z,6.12
2023-04-15T09:22:43.682Z,5.89
2023-04-15T09:25:32.773Z,5.84
2023-04-15T09:28:01.998Z,5.86
2023-04-15T09:30:29.106Z,5.64
2023-04-15T09:32:57.304Z,5.09
2023-04-15T09:35:24.796Z,4.60
2023-04-15T09:37:51.991Z,5.07
2023-04-15T09:40:38.802Z,4.99
2023-04-15T09:43:06.515Z,4.98
2023-04-15T09:45:34.262Z,5.15
2023-04-15T09:48:16.281Z,4.78
2023-04-15T09:50:43.969Z,5.20
2023-04-15T09:53:13.864Z,5.09
2023-04-15T09:55:43.680Z,4.56
2023-04-15T09:58:17.573Z,4.82
2023-04-15T10:00:44.102Z,4.08
2023-04-15T10:03:11.749Z,4.32
2023-04-15T10:05:39.698Z,4.35
2023-04-15T10:08:06.411Z,4.40
2023-04-15T10:10:33.437Z,5.42
2023-04-15T10:13:01.295Z,4.18
2023-04-15T10:15:28.827Z,4.35
2023-04-15T10:17:56.515Z,4.80
2023-04-15T10:20:23.777Z,4.13
2023-04-15T10:22:51.444Z,4.26
2023-04-15T10:25:19.107Z,4.29
2023-04-15T10:27:48.614Z,4.56
2023-04-15T10:30:15.670Z,4.41
2023-04-15T10:32:43.162Z,4.41
2023-04-15T10:35:10.833Z,5.07
2023-04-15T10:37:38.401Z,4.63
2023-04-15T10:40:23.404Z,4.60
2023-04-15T10:42:50.077Z,4.04
2023-04-15T10:45:17.897Z,4.63
2023-04-15T10:47:44.496Z,4.80
2023-04-15T10:50:11.294Z,4.39
2023-04-15T10:52:42.090Z,3.80
2023-04-15T10:55:16.372Z,4.31
2023-04-15T10:57:43.274Z,4.23
2023-04-15T11:00:12.146Z,3.76
2023-04-15T11:02:43.354Z,4.28
2023-04-15T11:05:10.858Z,3.75
2023-04-15T11:07:37.681Z,3.44
2023-04-15T11:10:13.440Z,3.35
2023-04-15T11:12:41.166Z,3.43
2023-04-15T11:15:27.105Z,2.96
2023-04-15T11:17:53.705Z,2.94
2023-04-15T11:20:20.773Z,3.28
2023-04-15T11:22:48.433Z,2.86
2023-04-15T11:25:22.455Z,3.04
2023-04-15T11:27:50.175Z,3.07
2023-04-15T11:30:18.343Z,2.88
2023-04-15T11:32:44.862Z,3.14
2023-04-15T11:35:11.452Z,3.24
2023-04-15T11:37:38.083Z,3.15
2023-04-15T11:40:04.867Z,3.06
2023-04-15T11:42:42.819Z,2.97
2023-04-15T11:45:15.913Z,3.00
2023-04-15T11:47:43.200Z,3.17
2023-04-15T11:50:20.294Z,3.06
2023-04-15T11:52:54.065Z,2.63
2023-04-15T11:55:20.824Z,2.69
2023-04-15T11:57:47.377Z,2.64
2023-04-15T12:00:14.196Z,2.30
2023-04-15T12:02:40.779Z,2.64
2023-04-15T12:05:07.702Z,2.61
2023-04-15T12:07:34.634Z,2.60
2023-04-15T12:10:02.038Z,2.71
2023-04-15T12:12:29.060Z,2.48
2023-04-15T12:14:57.178Z,2.31
2023-04-15T12:17:24.372Z,2.05
2023-04-15T12:19:56.607Z,2.31
2023-04-15T12:22:23.136Z,2.37
2023-04-15T12:24:54.778Z,2.40
2023-04-15T12:27:21.648Z,2.41
2023-04-15T12:29:48.190Z,2.01
2023-04-15T12:32:16.309Z,2.11
2023-04-15T12:35:01.638Z,1.98
2023-04-15T12:37:28.336Z,2.00
2023-04-15T12:39:55.828Z,1.84
2023-04-15T12:42:22.794Z,1.90
2023-04-15T12:44:49.302Z,1.71
2023-04-15T12:47:16.079Z,1.81
2023-04-15T12:49:42.657Z,2.10
2023-04-15T12:52:09.340Z,2.04
2023-04-15T12:54:36.501Z,2.46
2023-04-15T12:57:05.998Z,2.39
2023-04-15T12:59:33.236Z,2.25
2023-04-15T13:02:00.862Z,1.98
2023-04-15T13:04:30.700Z,2.16
2023-04-15T13:06:57.675Z,2.32
2023-04-15T13:09:24.260Z,2.05
2023-04-15T13:11:51.138Z,2.23
2023-04-15T13:14:17.902Z,2.37
2023-04-15T13:16:44.380Z,2.59
2023-04-15T13:19:11.117Z,2.54
2023-04-15T13:21:37.748Z,2.34
2023-04-15T13:24:05.045Z,1.66
2023-04-15T13:26:32.151Z,1.77
2023-04-15T13:28:58.787Z,2.00
2023-04-15T13:31:25.595Z,1.98
2023-04-15T13:33:52.119Z,1.96
2023-04-15T13:36:18.715Z,1.56
2023-04-15T13:38:45.199Z,1.63
2023-04-15T13:41:11.764Z,1.89
2023-04-15T13:43:38.306Z,2.21
2023-04-15T13:46:04.962Z,1.85
2023-04-15T13:48:31.783Z,1.95
2023-04-15T13:50:58.307Z,1.64
2023-04-15T13:53:33.976Z,1.65
2023-04-15T13:56:06.235Z,1.76
2023-04-15T13:58:32.957Z,1.83
2023-04-15T14:00:59.506Z,1.73
2023-04-15T14:03:26.277Z,1.71
2023-04-15T14:05:56.116Z,1.80
2023-04-15T14:08:23.345Z,1.97
2023-04-15T14:10:49.900Z,1.87
2023-04-15T14:13:16.577Z,1.98
2023-04-15T14:15:43.075Z,2.22
2023-04-15T14:18:09.645Z,2.12
2023-04-15T14:20:36.200Z,2.35
2023-04-15T14:23:02.841Z,2.36
2023-04-15T14:25:33.844Z,2.47
2023-04-15T14:28:01.260Z,2.59
2023-04-15T14:30:27.800Z,2.37
2023-04-15T14:32:54.345Z,2.44
2023-04-15T14:35:20.922Z,2.31
2023-04-15T14:37:47.452Z,3.14
2023-04-15T14:40:14.343Z,5.03
2023-04-15T14:42:40.833Z,10.15
2023-04-15T14:45:07.622Z,73.74
2023-04-15T14:47:34.310Z,37.54
2023-04-15T14:50:00.957Z,7.29
2023-04-15T14:52:27.500Z,4.74
2023-04-15T14:54:54.259Z,4.75
2023-04-15T14:57:20.788Z,43.01
2023-04-15T14:59:47.406Z,66.50
2023-04-15T15:02:17.275Z,16.32
2023-04-15T15:04:53.078Z,10.30
2023-04-15T15:07:19.834Z,8.31
2023-04-15T15:09:46.809Z,7.80
2023-04-15T15:12:13.350Z,8.48
2023-04-15T15:14:40.229Z,7.61
2023-04-15T15:17:06.981Z,4.96
2023-04-15T15:19:33.920Z,5.00
2023-04-15T15:22:00.566Z,5.17
2023-04-15T15:24:27.075Z,5.43
2023-04-15T15:26:53.547Z,4.28
2023-04-15T15:29:20.068Z,3.42
2023-04-15T15:31:46.735Z,2.95
2023-04-15T15:34:13.259Z,3.04
2023-04-15T15:36:39.746Z,3.53
2023-04-15T15:39:06.536Z,3.11
2023-04-15T15:41:33.453Z,2.39
2023-04-15T15:43:59.971Z,2.50
2023-04-15T15:46:28.083Z,2.31
2023-04-15T15:48:54.929Z,2.58
2023-04-15T15:51:21.478Z,2.91
2023-04-15T15:53:48.070Z,3.70
2023-04-15T15:56:14.797Z,2.89
2023-04-15T15:58:41.778Z,2.93
2023-04-15T16:01:08.650Z,2.29
2023-04-15T16:03:35.514Z,2.52
2023-04-15T16:06:02.134Z,2.38
2023-04-15T16:08:28.640Z,2.17
2023-04-15T16:10:55.440Z,2.18
2023-04-15T16:13:22.198Z,2.40
2023-04-15T16:15:50.157Z,2.70
2023-04-15T16:18:17.052Z,2.12
2023-04-15T16:20:44.058Z,2.45
2023-04-15T16:23:15.038Z,2.32
2023-04-15T16:25:42.494Z,2.26
2023-04-15T16:28:22.594Z,2.71
2023-04-15T16:30:51.986Z,2.40
2023-04-15T16:33:18.486Z,2.54
2023-04-15T16:35:45.124Z,2.85
2023-04-15T16:38:11.719Z,2.64
2023-04-15T16:40:38.479Z,2.50
2023-04-15T16:43:07.327Z,2.59
2023-04-15T16:45:34.009Z,2.29
2023-04-15T16:48:00.669Z,2.32
2023-04-15T16:50:27.343Z,2.29
2023-04-15T16:52:54.588Z,2.25
2023-04-15T16:55:21.221Z,2.27
2023-04-15T16:58:02.201Z,2.23
2023-04-15T17:00:31.157Z,2.23
2023-04-15T17:02:58.121Z,2.22
2023-04-15T17:05:24.788Z,2.32
2023-04-15T17:07:51.414Z,2.38
2023-04-15T17:10:17.962Z,2.07
2023-04-15T17:12:44.883Z,2.40
2023-04-15T17:15:11.438Z,2.31
2023-04-15T17:17:37.999Z,2.46
2023-04-15T17:20:04.805Z,2.33
2023-04-15T17:22:31.353Z,2.32
2023-04-15T17:24:57.899Z,2.24
2023-04-15T17:27:26.458Z,3.02
2023-04-15T17:29:53.047Z,3.50
2023-04-15T17:32:19.618Z,3.22
2023-04-15T17:34:49.603Z,3.20
2023-04-15T17:37:18.073Z,3.29
2023-04-15T17:39:44.572Z,3.17
2023-04-15T17:42:11.342Z,2.72
2023-04-15T17:44:38.062Z,2.36
2023-04-15T17:47:04.688Z,2.37
2023-04-15T17:49:32.660Z,2.68
2023-04-15T17:51:59.357Z,2.76
2023-04-15T17:54:25.847Z,3.01
2023-04-15T17:56:52.375Z,2.62
2023-04-15T17:59:19.221Z,2.89
2023-04-15T18:01:45.760Z,2.69
2023-04-15T18:04:12.707Z,2.71
2023-04-15T18:06:39.562Z,2.14
2023-04-15T18:09:06.826Z,2.13
2023-04-15T18:11:33.690Z,2.10
2023-04-15T18:14:02.684Z,2.07
2023-04-15T18:16:29.459Z,1.80
2023-04-15T18:18:56.001Z,2.24
2023-04-15T18:21:22.728Z,2.29
2023-04-15T18:23:49.258Z,2.71
2023-04-15T18:26:16.025Z,2.87
2023-04-15T18:28:42.646Z,3.09
2023-04-15T18:31:09.179Z,3.15
2023-04-15T18:33:35.972Z,2.86
2023-04-15T18:36:02.730Z,2.52
2023-04-15T18:38:29.279Z,3.43
2023-04-15T18:40:56.112Z,3.82
2023-04-15T18:43:22.644Z,3.67
2023-04-15T18:45:51.122Z,3.29
2023-04-15T18:48:17.869Z,2.88
2023-04-15T18:50:44.414Z,2.74
2023-04-15T18:53:11.038Z,2.44
2023-04-15T18:55:39.273Z,2.30
2023-04-15T18:58:08.874Z,2.28
2023-04-15T19:00:39.047Z,2.27
2023-04-15T19:03:06.586Z,2.70
2023-04-15T19:05:33.444Z,2.86
2023-04-15T19:08:00.075Z,3.04
2023-04-15T19:10:28.277Z,2.46
2023-04-15T19:12:55.458Z,2.84
2023-04-15T19:15:22.077Z,3.27
2023-04-15T19:17:48.704Z,3.61
2023-04-15T19:20:15.353Z,3.41
2023-04-15T19:22:43.157Z,3.58
2023-04-15T19:25:09.820Z,2.99
2023-04-15T19:27:38.134Z,3.42
2023-04-15T19:30:05.430Z,3.51
2023-04-15T19:32:32.106Z,3.39
2023-04-15T19:34:58.755Z,3.10
2023-04-15T19:37:25.571Z,2.94
2023-04-15T19:39:52.095Z,2.87
2023-04-15T19:42:18.831Z,2.42
2023-04-15T19:44:45.396Z,2.37
2023-04-15T19:47:12.360Z,2.69
2023-04-15T19:49:39.054Z,2.66
2023-04-15T19:52:05.906Z,2.55
2023-04-15T19:54:32.545Z,2.28
2023-04-15T19:56:59.181Z,2.46
2023-04-15T19:59:25.856Z,2.72
2023-04-15T20:01:52.600Z,2.63
2023-04-15T20:04:19.508Z,2.33
2023-04-15T20:06:46.243Z,2.38
2023-04-15T20:09:12.918Z,2.67
2023-04-15T20:12:47.895Z,2.92
2023-04-15T20:14:27.445Z,2.74
2023-04-15T20:16:54.032Z,2.67
2023-04-15T20:19:20.613Z,2.58
2023-04-15T20:21:47.178Z,2.65
2023-04-15T20:24:13.733Z,2.66
2023-04-15T20:26:40.228Z,2.50
2023-04-15T20:29:06.918Z,2.66
2023-04-15T20:31:34.148Z,2.83
2023-04-15T20:34:00.752Z,2.62
2023-04-15T20:36:27.645Z,2.49
2023-04-15T20:38:54.129Z,2.62
2023-04-15T20:41:21.719Z,2.66
2023-04-15T20:43:48.219Z,2.84
2023-04-15T20:46:21.222Z,3.09
2023-04-15T20:48:48.142Z,2.70
2023-04-15T20:51:15.191Z,2.60
2023-04-15T20:53:42.209Z,3.14
2023-04-15T20:56:08.882Z,3.21
2023-04-15T20:58:35.446Z,3.18
2023-04-15T21:01:02.187Z,3.15
2023-04-15T21:03:28.952Z,3.28
2023-04-15T21:05:56.088Z,3.13
2023-04-15T21:08:29.144Z,2.64
2023-04-15T21:10:56.725Z,2.88
2023-04-15T21:13:23.849Z,2.74
2023-04-15T21:15:53.328Z,2.75
2023-04-15T21:18:23.429Z,3.35
2023-04-15T21:20:57.471Z,2.86
2023-04-15T21:23:24.057Z,3.31
2023-04-15T21:25:51.279Z,3.10
2023-04-15T21:28:17.835Z,3.47
2023-04-15T21:30:45.702Z,3.13
2023-04-15T21:33:12.327Z,3.18
2023-04-15T21:35:39.071Z,2.96
2023-04-15T21:38:05.888Z,2.88
2023-04-15T21:40:32.781Z,3.01
2023-04-15T21:42:59.310Z,2.92
2023-04-15T21:45:25.804Z,2.65
2023-04-15T21:48:00.826Z,2.69
2023-04-15T21:50:36.156Z,3.06
2023-04-15T21:53:03.143Z,3.07
2023-04-15T21:55:29.770Z,3.37
2023-04-15T21:57:56.290Z,3.35
2023-04-15T22:00:23.660Z,3.42
2023-04-15T22:02:50.461Z,3.35
2023-04-15T22:05:17.224Z,3.51
2023-04-15T22:07:44.142Z,3.59
2023-04-15T22:10:10.799Z,3.58
2023-04-15T22:12:37.548Z,3.83
2023-04-15T22:15:04.522Z,3.51
2023-04-15T22:17:31.036Z,3.83
2023-04-15T22:19:57.540Z,3.65
2023-04-15T22:22:27.103Z,3.31
2023-04-15T22:25:10.697Z,3.77
2023-04-15T22:27:37.244Z,3.74
2023-04-15T22:30:04.774Z,3.80
2023-04-15T22:32:31.355Z,3.05
2023-04-15T22:34:57.959Z,3.28
2023-04-15T22:37:24.513Z,3.77
2023-04-15T22:39:51.880Z,4.21
2023-04-15T22:42:18.521Z,3.70
2023-04-15T22:44:45.045Z,3.55
2023-04-15T22:47:11.582Z,3.57
2023-04-15T22:49:39.478Z,4.50
2023-04-15T22:52:06.066Z,3.67
2023-04-15T22:54:33.395Z,4.15
2023-04-15T22:56:59.939Z,4.54
2023-04-15T22:59:26.466Z,4.21
2023-04-15T23:01:53.583Z,3.42
2023-04-15T23:04:23.670Z,4.10
2023-04-15T23:06:53.349Z,4.11
2023-04-15T23:09:19.819Z,3.92
2023-04-15T23:11:47.167Z,4.11
2023-04-15T23:14:13.671Z,4.34
2023-04-15T23:16:40.274Z,4.27
2023-04-15T23:19:07.046Z,4.38
2023-04-15T23:21:33.897Z,4.59
2023-04-15T23:24:00.355Z,4.72
2023-04-15T23:26:27.464Z,4.46
2023-04-15T23:28:53.956Z,3.78
2023-04-15T23:31:20.555Z,4.33
2023-04-15T23:33:47.209Z,4.55
2023-04-15T23:36:13.676Z,4.40
2023-04-15T23:38:40.154Z,4.06
2023-04-15T23:41:06.684Z,3.63
2023-04-15T23:43:33.218Z,3.82
2023-04-15T23:45:59.665Z,3.60
2023-04-15T23:48:26.281Z,3.45
2023-04-15T23:50:52.908Z,3.62
2023-04-15T23:53:19.473Z,3.72
2023-04-15T23:55:46.013Z,4.32
2023-04-15T23:58:12.631Z,4.13
